createdAt,value
2023-05-21T00:01:26.490Z,14.20
2023-05-21T00:03:53.997Z,14.20
2023-05-21T00:06:23.268Z,14.20
2023-05-21T00:08:50.716Z,14.20
2023-05-21T00:11:18.314Z,14.20
2023-05-21T00:13:45.344Z,14.10
2023-05-21T00:16:12.737Z,14.10
2023-05-21T00:18:42.401Z,14.10
2023-05-21T00:21:09.737Z,14.00
2023-05-21T00:23:37.764Z,14.00
2023-05-21T00:26:05.600Z,14.00
2023-05-21T00:28:32.679Z,14.00
2023-05-21T00:31:00.049Z,14.00
2023-05-21T00:33:29.017Z,14.10
2023-05-21T00:35:56.884Z,14.20
2023-05-21T00:38:24.146Z,14.10
2023-05-21T00:40:51.441Z,14.20
2023-05-21T00:43:18.436Z,14.10
2023-05-21T00:45:47.546Z,14.10
2023-05-21T00:48:14.981Z,14.10
2023-05-21T00:50:42.684Z,14.10
2023-05-21T00:53:10.132Z,14.10
2023-05-21T00:55:38.339Z,15.40
2023-05-21T00:58:06.603Z,14.10
2023-05-21T01:00:34.935Z,14.10
2023-05-21T01:03:02.431Z,14.10
2023-05-21T01:05:30.271Z,14.10
2023-05-21T01:07:58.744Z,14.00
2023-05-21T01:10:27.218Z,13.90
2023-05-21T01:12:57.456Z,13.80
2023-05-21T01:15:25.277Z,13.70
2023-05-21T01:17:53.207Z,13.60
2023-05-21T01:20:20.626Z,13.50
2023-05-21T01:22:55.258Z,13.50
2023-05-21T01:25:24.157Z,13.50
2023-05-21T01:27:51.954Z,13.40
2023-05-21T01:30:20.959Z,13.50
2023-05-21T01:33:02.798Z,13.50
2023-05-21T01:35:44.349Z,13.40
2023-05-21T01:38:45.986Z,13.40
2023-05-21T01:41:17.788Z,13.30
2023-05-21T01:43:46.910Z,13.20
2023-05-21T01:46:20.144Z,13.00
2023-05-21T01:48:49.941Z,12.80
2023-05-21T01:51:17.599Z,12.60
2023-05-21T01:53:44.785Z,12.40
2023-05-21T01:56:12.695Z,12.30
2023-05-21T01:58:39.743Z,12.10
2023-05-21T02:01:07.408Z,12.10
2023-05-21T02:03:34.946Z,12.10
2023-05-21T02:06:02.712Z,12.00
2023-05-21T02:08:29.674Z,12.00
2023-05-21T02:10:57.366Z,12.00
2023-05-21T02:13:26.463Z,11.90
2023-05-21T02:15:54.915Z,11.90
2023-05-21T02:18:22.406Z,11.80
2023-05-21T02:20:50.169Z,11.80
2023-05-21T02:23:17.204Z,11.70
2023-05-21T02:25:44.862Z,11.70
2023-05-21T02:28:12.796Z,11.70
2023-05-21T02:30:40.507Z,11.70
2023-05-21T02:33:09.216Z,11.80
2023-05-21T02:35:36.862Z,11.80
2023-05-21T02:38:04.222Z,11.80
2023-05-21T02:40:33.167Z,11.80
2023-05-21T02:43:00.620Z,11.70
2023-05-21T02:45:30.091Z,11.60
2023-05-21T02:47:57.184Z,11.50
2023-05-21T02:50:24.506Z,11.40
2023-05-21T02:52:52.462Z,11.40
2023-05-21T02:55:19.910Z,11.40
2023-05-21T02:57:46.909Z,11.40
2023-05-21T03:00:14.949Z,11.40
2023-05-21T03:02:43.004Z,11.40
2023-05-21T03:05:10.646Z,11.40
2023-05-21T03:07:37.638Z,11.50
2023-05-21T03:10:05.960Z,11.60
2023-05-21T03:12:32.981Z,11.60
2023-05-21T03:15:00.253Z,11.70
2023-05-21T03:17:27.297Z,11.80
2023-05-21T03:19:54.794Z,11.80
2023-05-21T03:22:21.812Z,11.80
2023-05-21T03:24:49.129Z,11.90
2023-05-21T03:27:16.211Z,11.90
2023-05-21T03:29:43.860Z,11.90
2023-05-21T03:32:11.166Z,12.00
2023-05-21T03:34:38.618Z,12.00
2023-05-21T03:37:05.760Z,12.10
2023-05-21T03:39:33.080Z,12.20
2023-05-21T03:42:00.145Z,12.30
2023-05-21T03:44:28.071Z,12.30
2023-05-21T03:46:55.067Z,12.30
2023-05-21T03:49:22.331Z,12.40
2023-05-21T03:51:49.313Z,12.40
2023-05-21T03:54:16.641Z,12.40
2023-05-21T03:56:43.664Z,12.40
2023-05-21T03:59:11.056Z,12.40
2023-05-21T04:01:39.114Z,12.40
2023-05-21T04:04:06.960Z,12.50
2023-05-21T04:06:34.071Z,12.50
2023-05-21T04:09:01.639Z,12.60
2023-05-21T04:11:28.688Z,12.60
2023-05-21T04:13:56.096Z,12.70
2023-05-21T04:16:24.714Z,12.70
2023-05-21T04:18:52.439Z,12.80
2023-05-21T04:21:19.515Z,12.90
2023-05-21T04:23:47.080Z,12.90
2023-05-21T04:26:16.301Z,13.10
2023-05-21T04:28:43.638Z,13.20
2023-05-21T04:31:13.039Z,13.30
2023-05-21T04:33:42.259Z,13.40
2023-05-21T04:36:10.613Z,13.50
2023-05-21T04:38:39.852Z,13.60
2023-05-21T04:41:07.057Z,12.60
2023-05-21T04:43:34.393Z,13.90
2023-05-21T04:46:01.473Z,14.10
2023-05-21T04:48:29.082Z,14.20
2023-05-21T04:50:56.865Z,14.40
2023-05-21T04:53:26.100Z,14.50
2023-05-21T04:55:53.380Z,14.60
2023-05-21T04:58:20.686Z,14.80
2023-05-21T05:00:50.899Z,14.90
2023-05-21T05:03:18.824Z,15.00
2023-05-21T05:05:46.633Z,15.20
2023-05-21T05:08:15.933Z,15.30
2023-05-21T05:10:43.370Z,15.40
2023-05-21T05:13:10.930Z,15.50
2023-05-21T05:15:38.199Z,15.60
2023-05-21T05:18:08.705Z,15.70
2023-05-21T05:20:35.837Z,15.90
2023-05-21T05:23:03.214Z,16.00
2023-05-21T05:25:30.476Z,16.10
2023-05-21T05:27:57.919Z,16.20
2023-05-21T05:30:24.951Z,16.40
2023-05-21T05:32:52.426Z,16.50
2023-05-21T05:35:19.540Z,16.60
2023-05-21T05:37:46.924Z,16.70
2023-05-21T05:40:13.917Z,16.90
2023-05-21T05:42:41.340Z,17.00
2023-05-21T05:45:09.006Z,17.10
2023-05-21T05:47:36.691Z,17.30
2023-05-21T05:50:04.000Z,17.40
2023-05-21T05:52:31.251Z,17.50
2023-05-21T05:54:58.464Z,17.60
2023-05-21T05:57:25.789Z,17.80
2023-05-21T05:59:52.789Z,17.90
2023-05-21T06:02:20.136Z,18.10
2023-05-21T06:04:47.189Z,18.30
2023-05-21T06:07:14.747Z,18.50
2023-05-21T06:09:41.795Z,18.60
2023-05-21T06:12:12.267Z,18.80
2023-05-21T06:14:45.046Z,19.00
2023-05-21T06:17:15.520Z,19.20
2023-05-21T06:19:42.885Z,19.30
2023-05-21T06:22:10.595Z,19.60
2023-05-21T06:24:38.213Z,19.80
2023-05-21T06:27:06.122Z,20.00
2023-05-21T06:29:33.268Z,20.20
2023-05-21T06:32:01.958Z,20.50
2023-05-21T06:34:29.545Z,20.90
2023-05-21T06:36:57.113Z,21.20
2023-05-21T06:39:24.676Z,21.50
2023-05-21T06:41:51.943Z,21.80
2023-05-21T06:44:18.937Z,22.00
2023-05-21T06:46:46.472Z,22.30
2023-05-21T06:49:14.609Z,22.80
2023-05-21T06:51:42.094Z,23.40
2023-05-21T06:54:09.200Z,23.50
2023-05-21T06:56:36.459Z,23.80
2023-05-21T06:59:03.526Z,24.30
2023-05-21T07:01:30.828Z,24.30
2023-05-21T07:03:58.696Z,24.60
2023-05-21T07:06:25.776Z,24.70
2023-05-21T07:08:53.095Z,24.60
2023-05-21T07:11:20.142Z,24.80
2023-05-21T07:13:47.464Z,24.90
2023-05-21T07:16:14.593Z,25.00
2023-05-21T07:18:42.350Z,25.40
2023-05-21T07:21:09.522Z,25.60
2023-05-21T07:23:36.772Z,26.10
2023-05-21T07:26:03.970Z,26.80
2023-05-21T07:28:31.516Z,26.90
2023-05-21T07:30:58.579Z,27.20
2023-05-21T07:33:25.882Z,27.60
2023-05-21T07:35:52.973Z,27.50
2023-05-21T07:38:20.329Z,27.20
2023-05-21T07:40:47.344Z,27.00
2023-05-21T07:43:14.730Z,27.20
2023-05-21T07:45:41.799Z,27.50
2023-05-21T07:48:09.095Z,27.60
2023-05-21T07:50:36.094Z,27.30
2023-05-21T07:53:03.860Z,26.80
2023-05-21T07:55:31.118Z,25.90
2023-05-21T07:57:59.757Z,25.90
2023-05-21T08:00:26.809Z,25.90
2023-05-21T08:02:54.198Z,26.10
2023-05-21T08:05:23.446Z,26.50
2023-05-21T08:07:50.870Z,26.90
2023-05-21T08:10:19.394Z,27.50
2023-05-21T08:12:46.919Z,27.90
2023-05-21T08:15:13.931Z,27.90
2023-05-21T08:17:41.825Z,28.10
2023-05-21T08:20:09.371Z,28.40
2023-05-21T08:22:36.924Z,28.50
2023-05-21T08:25:04.191Z,28.50
2023-05-21T08:27:31.493Z,29.00
2023-05-21T08:29:58.551Z,29.30
2023-05-21T08:32:26.180Z,29.80
2023-05-21T08:34:53.257Z,30.00
2023-05-21T08:37:21.713Z,30.50
2023-05-21T08:39:48.911Z,30.90
2023-05-21T08:42:37.405Z,31.20
2023-05-21T08:45:06.836Z,31.30
2023-05-21T08:47:37.036Z,31.20
2023-05-21T08:50:05.266Z,31.10
2023-05-21T08:52:32.931Z,31.00
2023-05-21T08:55:00.405Z,31.00
2023-05-21T08:57:28.720Z,31.50
2023-05-21T08:59:55.737Z,31.50
2023-05-21T09:02:25.208Z,31.40
2023-05-21T09:04:57.456Z,31.20
2023-05-21T09:07:29.196Z,31.40
2023-05-21T09:09:58.009Z,31.40
2023-05-21T09:12:25.630Z,31.50
2023-05-21T09:14:53.075Z,31.90
2023-05-21T09:17:20.882Z,32.30
2023-05-21T09:20:14.499Z,32.40
2023-05-21T09:22:46.322Z,32.40
2023-05-21T09:25:15.785Z,31.60
2023-05-21T09:27:43.888Z,31.10
2023-05-21T09:30:12.701Z,31.00
2023-05-21T09:32:41.065Z,30.90
2023-05-21T09:35:16.913Z,30.60
2023-05-21T09:37:47.367Z,29.90
2023-05-21T09:40:19.204Z,29.90
2023-05-21T09:42:51.840Z,30.30
2023-05-21T09:45:23.859Z,30.30
2023-05-21T09:47:53.733Z,30.90
2023-05-21T09:50:22.008Z,31.30
2023-05-21T09:52:53.017Z,30.90
2023-05-21T09:55:23.454Z,30.90
2023-05-21T09:57:51.481Z,30.90
2023-05-21T10:00:21.271Z,30.80
2023-05-21T10:02:50.103Z,30.90
2023-05-21T10:05:17.750Z,30.70
2023-05-21T10:07:53.606Z,30.40
2023-05-21T10:10:24.624Z,30.50
2023-05-21T10:12:58.211Z,30.70
2023-05-21T10:15:27.943Z,30.30
2023-05-21T10:17:56.371Z,30.50
2023-05-21T10:20:23.863Z,30.50
2023-05-21T10:22:51.709Z,30.80
2023-05-21T10:25:20.333Z,30.80
2023-05-21T10:27:48.966Z,30.90
2023-05-21T10:30:18.190Z,30.90
2023-05-21T10:32:47.894Z,31.10
2023-05-21T10:35:17.209Z,31.00
2023-05-21T10:37:45.818Z,31.10
2023-05-21T10:40:13.624Z,30.70
2023-05-21T10:42:49.220Z,30.50
2023-05-21T10:45:21.550Z,30.20
2023-05-21T10:48:18.496Z,29.90
2023-05-21T10:50:56.663Z,30.20
2023-05-21T10:53:33.169Z,30.20
2023-05-21T10:56:15.586Z,30.80
2023-05-21T10:58:42.788Z,31.30
2023-05-21T11:01:11.302Z,31.30
2023-05-21T11:03:38.994Z,31.80
2023-05-21T11:06:06.566Z,32.00
2023-05-21T11:08:38.939Z,32.10
2023-05-21T11:11:06.263Z,32.50
2023-05-21T11:13:50.504Z,32.10
2023-05-21T11:16:18.278Z,31.90
2023-05-21T11:18:45.997Z,31.70
2023-05-21T11:21:17.486Z,31.90
2023-05-21T11:23:51.271Z,31.50
2023-05-21T11:26:23.947Z,31.70
2023-05-21T11:29:11.861Z,31.30
2023-05-21T11:31:39.113Z,30.60
2023-05-21T11:34:14.206Z,30.40
2023-05-21T11:36:42.435Z,30.30
2023-05-21T11:39:15.436Z,29.90
2023-05-21T11:41:58.451Z,29.40
2023-05-21T11:44:45.195Z,28.90
2023-05-21T11:47:17.987Z,28.50
2023-05-21T11:49:46.389Z,28.50
2023-05-21T11:52:14.414Z,28.30
2023-05-21T11:54:48.566Z,28.10
2023-05-21T11:57:17.272Z,27.70
2023-05-21T11:59:49.608Z,31.70
2023-05-21T12:02:18.287Z,28.20
2023-05-21T12:04:48.595Z,28.00
2023-05-21T12:07:18.010Z,27.60
2023-05-21T12:09:46.995Z,27.60
2023-05-21T12:12:19.559Z,27.50
2023-05-21T12:14:49.172Z,27.40
2023-05-21T12:17:17.774Z,27.10
2023-05-21T12:19:46.646Z,26.90
2023-05-21T12:22:15.454Z,27.10
2023-05-21T12:24:44.136Z,27.20
2023-05-21T12:27:13.250Z,27.10
2023-05-21T12:29:43.248Z,26.80
2023-05-21T12:32:13.052Z,26.90
2023-05-21T12:34:43.315Z,26.80
2023-05-21T12:37:22.242Z,26.90
2023-05-21T12:39:53.299Z,27.10
2023-05-21T12:42:29.959Z,26.90
2023-05-21T12:44:58.126Z,26.80
2023-05-21T12:47:27.021Z,27.30
2023-05-21T12:49:58.086Z,27.30
2023-05-21T12:52:25.871Z,27.40
2023-05-21T12:54:56.321Z,27.90
2023-05-21T12:57:28.283Z,28.00
2023-05-21T13:00:01.007Z,28.00
2023-05-21T13:02:34.156Z,28.10
2023-05-21T13:05:08.044Z,28.00
2023-05-21T13:07:37.772Z,28.00
2023-05-21T13:10:06.365Z,28.30
2023-05-21T13:12:34.711Z,28.00
2023-05-21T13:15:04.563Z,28.30
2023-05-21T13:17:31.723Z,28.50
2023-05-21T13:20:15.390Z,29.20
2023-05-21T13:22:47.331Z,29.60
2023-05-21T13:25:24.585Z,29.90
2023-05-21T13:27:52.981Z,30.10
2023-05-21T13:30:22.045Z,30.10
2023-05-21T13:32:49.553Z,29.60
2023-05-21T13:35:17.682Z,29.60
2023-05-21T13:37:45.304Z,30.10
2023-05-21T13:40:15.169Z,30.80
2023-05-21T13:42:47.365Z,31.40
2023-05-21T13:45:17.399Z,31.50
2023-05-21T13:47:46.062Z,32.30
2023-05-21T13:50:14.087Z,32.10
2023-05-21T13:52:41.767Z,32.00
2023-05-21T13:55:10.569Z,31.60
2023-05-21T13:57:37.791Z,31.50
2023-05-21T14:00:06.111Z,31.70
2023-05-21T14:02:34.660Z,31.80
2023-05-21T14:05:02.316Z,32.10
2023-05-21T14:07:29.532Z,32.20
2023-05-21T14:09:56.839Z,32.10
2023-05-21T14:12:23.973Z,31.50
2023-05-21T14:14:51.705Z,31.60
2023-05-21T14:17:18.731Z,31.50
2023-05-21T14:19:46.009Z,31.20
2023-05-21T14:22:13.252Z,30.90
2023-05-21T14:24:40.820Z,30.10
2023-05-21T14:27:07.816Z,30.90
2023-05-21T14:29:35.134Z,30.50
2023-05-21T14:32:02.161Z,30.60
2023-05-21T14:34:29.543Z,31.00
2023-05-21T14:36:56.648Z,30.90
2023-05-21T14:39:24.229Z,31.60
2023-05-21T14:41:51.345Z,32.10
2023-05-21T14:44:19.864Z,32.10
2023-05-21T14:46:46.942Z,31.30
2023-05-21T14:49:14.631Z,30.90
2023-05-21T14:51:42.493Z,30.40
2023-05-21T14:54:09.808Z,29.70
2023-05-21T14:56:36.844Z,28.40
2023-05-21T14:59:04.513Z,28.20
2023-05-21T15:01:31.779Z,29.00
2023-05-21T15:03:59.406Z,29.30
2023-05-21T15:06:26.561Z,29.20
2023-05-21T15:08:54.159Z,29.00
2023-05-21T15:11:21.534Z,28.30
2023-05-21T15:13:48.973Z,27.20
2023-05-21T15:16:18.080Z,26.40
2023-05-21T15:18:47.295Z,25.80
2023-05-21T15:21:15.658Z,25.30
2023-05-21T15:23:43.005Z,24.90
2023-05-21T15:26:10.031Z,24.70
2023-05-21T15:28:37.447Z,24.50
2023-05-21T15:31:04.539Z,24.40
2023-05-21T15:33:31.975Z,24.30
2023-05-21T15:35:59.406Z,24.20
2023-05-21T15:38:26.967Z,24.10
2023-05-21T15:40:54.269Z,24.00
2023-05-21T15:43:21.666Z,24.00
2023-05-21T15:45:48.785Z,24.10
2023-05-21T15:48:22.430Z,24.00
2023-05-21T15:50:50.084Z,23.80
2023-05-21T15:53:17.467Z,23.70
2023-05-21T15:55:44.868Z,23.60
2023-05-21T15:58:12.488Z,23.50
2023-05-21T16:00:39.546Z,23.40
2023-05-21T16:03:07.668Z,23.40
2023-05-21T16:05:34.962Z,23.20
2023-05-21T16:08:02.348Z,23.20
2023-05-21T16:10:29.557Z,23.20
2023-05-21T16:12:56.964Z,23.00
2023-05-21T16:15:24.045Z,23.00
2023-05-21T16:17:51.766Z,22.80
2023-05-21T16:20:18.892Z,22.70
2023-05-21T16:25:13.665Z,22.50
2023-05-21T16:27:40.999Z,22.40
2023-05-21T16:30:08.591Z,22.30
2023-05-21T16:32:35.937Z,22.20
2023-05-21T16:35:04.222Z,22.00
2023-05-21T16:37:31.502Z,22.00
2023-05-21T16:42:26.467Z,21.80
2023-05-21T16:44:53.490Z,21.70
2023-05-21T16:47:20.815Z,21.60
2023-05-21T16:52:15.741Z,21.60
2023-05-21T16:54:44.757Z,21.60
2023-05-21T16:57:13.075Z,21.60
2023-05-21T17:02:10.762Z,21.40
2023-05-21T17:09:33.669Z,20.90
2023-05-21T17:19:27.036Z,20.50
2023-05-21T17:21:57.247Z,20.40
2023-05-21T17:24:24.454Z,20.10
2023-05-21T17:26:53.276Z,20.00
2023-05-21T17:29:20.375Z,19.80
2023-05-21T17:31:48.136Z,19.70
2023-05-21T17:34:16.693Z,19.60
2023-05-21T17:36:44.385Z,19.50
2023-05-21T17:39:11.656Z,19.40
2023-05-21T17:41:39.236Z,19.40
2023-05-21T17:44:06.251Z,19.40
2023-05-21T17:46:34.542Z,19.40
2023-05-21T17:49:02.483Z,19.40
2023-05-21T17:51:29.851Z,19.40
2023-05-21T17:53:57.103Z,19.30
2023-05-21T17:56:24.578Z,19.20
2023-05-21T17:58:51.791Z,19.10
2023-05-21T18:01:19.910Z,19.00
2023-05-21T18:03:47.928Z,18.60
2023-05-21T18:06:15.896Z,18.40
2023-05-21T18:08:42.935Z,18.20
2023-05-21T18:11:10.305Z,18.00
2023-05-21T18:13:37.739Z,17.90
2023-05-21T18:16:05.523Z,17.90
2023-05-21T18:18:32.570Z,17.80
2023-05-21T18:21:01.494Z,17.80
2023-05-21T18:23:30.538Z,17.70
2023-05-21T18:25:58.855Z,17.70
2023-05-21T18:28:27.540Z,17.60
2023-05-21T18:31:00.785Z,17.50
2023-05-21T18:33:28.312Z,17.30
2023-05-21T18:35:57.155Z,17.10
2023-05-21T18:38:25.023Z,17.00
2023-05-21T18:40:52.771Z,16.90
2023-05-21T18:43:19.857Z,16.80
2023-05-21T18:45:47.626Z,16.60
2023-05-21T18:48:15.419Z,16.50
2023-05-21T18:53:10.872Z,16.30
2023-05-21T18:55:38.136Z,16.20
2023-05-21T19:00:34.642Z,15.90
2023-05-21T19:03:02.512Z,15.70
2023-05-21T19:05:31.694Z,15.70
2023-05-21T19:07:59.613Z,15.50
2023-05-21T19:10:27.060Z,15.40
2023-05-21T19:12:54.541Z,12.30
2023-05-21T19:15:22.100Z,15.10
2023-05-21T19:17:49.411Z,15.00
2023-05-21T19:20:26.419Z,14.90
2023-05-21T19:22:54.498Z,14.80
2023-05-21T19:25:21.775Z,14.80
2023-05-21T19:27:48.799Z,14.80
2023-05-21T19:30:16.223Z,14.80
2023-05-21T19:32:43.367Z,14.80
2023-05-21T19:35:14.115Z,14.80
2023-05-21T19:37:41.107Z,14.80
2023-05-21T19:40:09.039Z,14.90
2023-05-21T19:42:37.102Z,14.90
2023-05-21T19:45:09.338Z,14.90
2023-05-21T19:47:36.590Z,14.80
2023-05-21T19:50:04.411Z,14.80
2023-05-21T19:52:31.493Z,14.80
2023-05-21T19:55:05.737Z,14.80
2023-05-21T19:57:32.930Z,14.70
2023-05-21T20:00:00.491Z,14.70
2023-05-21T20:02:28.808Z,14.70
2023-05-21T20:04:57.780Z,14.60
2023-05-21T20:07:25.040Z,14.60
2023-05-21T20:09:52.516Z,14.60
2023-05-21T20:12:19.607Z,14.60
2023-05-21T20:14:47.719Z,14.50
2023-05-21T20:17:15.301Z,14.50
2023-05-21T20:19:44.085Z,14.40
2023-05-21T20:22:11.202Z,14.40
2023-05-21T20:24:38.659Z,14.40
2023-05-21T20:27:06.075Z,14.30
2023-05-21T20:29:33.425Z,14.30
2023-05-21T20:32:00.429Z,14.30
2023-05-21T20:34:28.145Z,14.20
2023-05-21T20:36:58.102Z,14.20
2023-05-21T20:39:29.849Z,14.20
2023-05-21T20:41:58.410Z,14.10
2023-05-21T20:44:27.571Z,14.10
2023-05-21T20:46:54.695Z,13.90
2023-05-21T20:49:24.938Z,13.80
2023-05-21T20:51:52.192Z,13.60
2023-05-21T20:54:21.894Z,13.40
2023-05-21T20:56:50.811Z,13.30
2023-05-21T20:59:18.212Z,13.20
2023-05-21T21:01:45.295Z,13.20
2023-05-21T21:04:12.721Z,13.20
2023-05-21T21:06:40.505Z,13.20
2023-05-21T21:09:08.595Z,13.20
2023-05-21T21:11:35.719Z,13.20
2023-05-21T21:14:03.315Z,13.10
2023-05-21T21:16:30.459Z,13.10
2023-05-21T21:18:57.998Z,13.10
2023-05-21T21:21:25.493Z,13.10
2023-05-21T21:23:53.116Z,13.10
2023-05-21T21:26:20.135Z,13.10
2023-05-21T21:28:47.512Z,13.10
2023-05-21T21:31:14.612Z,13.00
2023-05-21T21:33:42.143Z,13.00
2023-05-21T21:36:14.313Z,12.90
2023-05-21T21:38:41.569Z,12.90
2023-05-21T21:41:08.618Z,12.70
2023-05-21T21:43:36.590Z,12.70
2023-05-21T21:46:03.773Z,12.60
2023-05-21T21:48:31.072Z,12.60
2023-05-21T21:50:58.989Z,12.60
2023-05-21T21:53:26.657Z,12.60
2023-05-21T21:55:55.119Z,12.60
2023-05-21T21:58:22.831Z,12.50
2023-05-21T22:00:49.879Z,12.50
2023-05-21T22:03:17.273Z,12.50
2023-05-21T22:05:44.380Z,12.40
2023-05-21T22:08:11.688Z,12.40
2023-05-21T22:10:39.376Z,12.40
2023-05-21T22:13:07.036Z,12.40
2023-05-21T22:15:35.879Z,12.30
2023-05-21T22:18:03.449Z,12.30
2023-05-21T22:20:30.713Z,12.30
2023-05-21T22:22:58.180Z,12.30
2023-05-21T22:25:25.624Z,12.20
2023-05-21T22:27:53.179Z,12.10
2023-05-21T22:30:20.266Z,12.10
2023-05-21T22:32:48.988Z,12.00
2023-05-21T22:35:16.135Z,12.00
2023-05-21T22:37:43.410Z,12.00
2023-05-21T22:40:10.839Z,12.00
2023-05-21T22:42:38.765Z,12.00
2023-05-21T22:45:06.766Z,12.00
2023-05-21T22:47:37.178Z,12.00
2023-05-21T22:50:04.554Z,11.90
2023-05-21T22:52:32.519Z,11.90
2023-05-21T22:55:00.751Z,11.80
2023-05-21T22:57:31.065Z,11.80
2023-05-21T22:59:58.294Z,11.70
2023-05-21T23:02:26.147Z,11.70
2023-05-21T23:04:55.114Z,11.70
2023-05-21T23:07:24.572Z,11.60
2023-05-21T23:09:51.892Z,11.60
2023-05-21T23:12:19.231Z,11.60
2023-05-21T23:14:46.686Z,11.50
2023-05-21T23:17:16.081Z,11.50
2023-05-21T23:19:44.259Z,11.40
2023-05-21T23:22:14.238Z,11.40
2023-05-21T23:24:46.644Z,11.40
2023-05-21T23:27:15.975Z,11.40
2023-05-21T23:34:42.041Z,11.30
2023-05-21T23:37:09.637Z,11.30
2023-05-21T23:39:36.798Z,11.40
2023-05-21T23:42:04.369Z,11.30
2023-05-21T23:44:31.485Z,11.30
2023-05-21T23:46:58.792Z,11.30
2023-05-21T23:49:25.826Z,11.30
2023-05-21T23:51:53.721Z,11.30
2023-05-21T23:54:20.867Z,11.20
2023-05-21T23:56:48.180Z,11.20
2023-05-21T23:59:17.602Z,11.20
